Time;durP1;ratioP1;P1;durP2;ratioP2;P2;SDS_P1;SDS_P2;PMS_P1;PMS_P2;Temp;Humidity;BMP_temperature;BMP_pressure;BME280_temperature;BME280_humidity;BME280_pressure;Samples;Min_cycle;Max_cycle;Signal;HPM_P1;HPM_P2
2021/12/06 00:01:48;;;;;;;3.40;3.10;;;16.30;54.90;17.10;100233.00;;;;4950997;29;20235;-43
2021/12/06 00:04:27;;;;;;;3.33;3.03;;;16.30;55.00;17.10;100240.00;;;;4951322;28;20217;-43
2021/12/06 00:06:57;;;;;;;3.90;2.90;;;16.30;55.10;17.10;100243.00;;;;4950648;28;20189;-43
2021/12/06 00:09:24;;;;;;;3.53;2.90;;;16.20;55.10;17.10;100248.00;;;;4950890;28;20703;-42
2021/12/06 00:11:57;;;;;;;3.27;2.90;;;16.20;55.10;17.00;100245.00;;;;4950576;29;20197;-43
2021/12/06 00:14:27;;;;;;;3.27;3.00;;;16.20;55.00;17.00;100251.00;;;;4950698;28;20227;-43
2021/12/06 00:16:55;;;;;;;3.30;3.00;;;16.20;55.00;17.00;100236.00;;;;4949922;28;20841;-43
2021/12/06 00:19:20;;;;;;;3.20;2.90;;;16.10;54.80;17.00;100246.00;;;;4965281;28;20162;-43
2021/12/06 00:21:46;;;;;;;4.50;3.17;;;16.10;55.00;17.00;100250.00;;;;4950744;28;20198;-43
2021/12/06 00:24:12;;;;;;;3.67;2.80;;;16.10;55.10;16.90;100255.00;;;;4950762;28;20648;-42
2021/12/06 00:26:38;;;;;;;3.93;3.20;;;16.00;54.90;16.90;100256.00;;;;4950994;28;20205;-42
2021/12/06 00:29:03;;;;;;;3.53;3.23;;;16.10;54.90;16.90;100252.00;;;;4950470;28;20198;-41
2021/12/06 00:31:32;;;;;;;3.40;3.03;;;16.00;55.10;16.90;100253.00;;;;4950212;29;20193;-42
2021/12/06 00:34:04;;;;;;;3.90;3.50;;;16.00;54.80;16.90;100257.00;;;;4950646;28;20796;-41
2021/12/06 00:36:31;;;;;;;3.63;3.33;;;16.00;54.80;16.90;100251.00;;;;4950846;28;20166;-42
2021/12/06 00:38:57;;;;;;;4.10;3.40;;;15.90;54.80;16.80;100248.00;;;;4950429;28;20301;-42
2021/12/06 00:41:23;;;;;;;3.90;3.60;;;15.90;54.70;16.80;100259.00;;;;4949819;29;20177;-43
2021/12/06 00:43:49;;;;;;;3.67;3.23;;;16.00;54.80;16.80;100256.00;;;;4949421;28;20182;-43
2021/12/06 00:46:15;;;;;;;3.90;3.60;;;15.90;54.60;16.80;100259.00;;;;4950176;29;20194;-43
2021/12/06 00:48:40;;;;;;;3.57;3.27;;;15.90;54.70;16.80;100270.00;;;;4950303;29;20599;-43
2021/12/06 00:51:06;;;;;;;3.60;3.30;;;15.90;54.80;16.80;100276.00;;;;4950204;28;20201;-43
2021/12/06 00:53:32;;;;;;;3.60;3.30;;;15.90;54.70;16.70;100269.00;;;;4950133;29;20194;-43
2021/12/06 00:55:58;;;;;;;3.87;3.47;;;15.90;54.80;16.70;100273.00;;;;4949964;28;20753;-43
2021/12/06 00:58:24;;;;;;;3.40;3.10;;;15.80;54.70;16.70;100257.00;;;;4950190;28;20844;-43
2021/12/06 01:00:52;;;;;;;3.40;3.10;;;15.80;54.70;16.70;100280.00;;;;4964952;28;20185;-43
2021/12/06 01:03:22;;;;;;;3.20;2.90;;;15.80;54.80;16.70;100279.00;;;;4950340;29;20229;-42
2021/12/06 01:05:48;;;;;;;3.40;3.10;;;15.80;54.60;16.70;100272.00;;;;4949949;28;20256;-43
2021/12/06 01:08:13;;;;;;;3.10;2.87;;;15.80;54.80;16.70;100275.00;;;;4950038;28;20241;-43
2021/12/06 01:10:42;;;;;;;3.50;3.20;;;15.70;54.60;16.60;100269.00;;;;4949483;29;20201;-43
2021/12/06 01:13:07;;;;;;;3.40;3.13;;;15.80;54.70;16.60;100274.00;;;;4950102;29;20193;-45
2021/12/06 01:15:34;;;;;;;3.37;3.07;;;15.80;54.60;16.60;100291.00;;;;4950051;28;20197;-42
2021/12/06 01:18:01;;;;;;;3.47;3.17;;;15.70;54.80;16.60;100301.00;;;;4949762;28;20170;-43
2021/12/06 01:20:30;;;;;;;3.13;2.90;;;15.70;54.60;16.60;100303.00;;;;4949799;28;20180;-42
2021/12/06 01:23:05;;;;;;;3.80;3.50;;;15.70;54.90;16.60;100314.00;;;;4949169;28;20616;-43
2021/12/06 01:26:09;;;;;;;3.60;3.23;;;15.70;54.80;16.50;100314.00;;;;4949929;28;20184;-43
2021/12/06 01:29:03;;;;;;;3.30;3.00;;;15.70;54.70;16.50;100323.00;;;;4949262;28;20651;-43
2021/12/06 01:34:11;;;;;;;3.93;3.20;;;15.60;54.70;16.50;100338.00;;;;4949736;29;20169;-43
2021/12/06 01:39:25;;;;;;;3.30;3.00;;;15.60;54.70;16.40;100344.00;;;;4949189;29;20191;-42
2021/12/06 01:41:57;;;;;;;3.30;3.00;;;15.60;54.60;16.40;100348.00;;;;4949328;28;20205;-43
2021/12/06 01:44:29;;;;;;;3.10;2.90;;;15.50;54.70;16.40;100341.00;;;;4949435;29;20165;-43
2021/12/06 01:46:59;;;;;;;3.10;2.90;;;15.50;54.70;16.40;100342.00;;;;4949183;28;20275;-43
2021/12/06 01:49:30;;;;;;;3.53;2.90;;;15.50;54.60;16.40;100340.00;;;;4949253;29;20279;-43
2021/12/06 01:51:58;;;;;;;3.10;2.90;;;15.50;54.60;16.30;100334.00;;;;4949173;28;20252;-43
2021/12/06 01:54:24;;;;;;;2.80;2.60;;;15.50;54.60;16.30;100323.00;;;;4949595;28;20244;-43
2021/12/06 01:56:50;;;;;;;3.20;3.00;;;15.50;54.50;16.30;100333.00;;;;4949633;29;20264;-43
2021/12/06 01:59:16;;;;;;;3.10;2.80;;;15.50;54.60;16.30;100335.00;;;;4949093;28;20177;-43
2021/12/06 02:01:42;;;;;;;2.80;2.60;;;15.40;54.50;16.30;100335.00;;;;4963827;28;20173;-43
2021/12/06 02:04:08;;;;;;;3.00;2.80;;;15.40;54.60;16.30;100341.00;;;;4948722;28;20178;-43
2021/12/06 02:06:33;;;;;;;3.27;3.00;;;15.40;54.60;16.30;100338.00;;;;4949325;29;20181;-42
2021/12/06 02:08:59;;;;;;;3.10;2.87;;;15.40;54.50;16.30;100355.00;;;;4948979;28;20279;-42
2021/12/06 02:11:27;;;;;;;3.20;3.00;;;15.40;54.50;16.30;100353.00;;;;4948274;29;20649;-43
2021/12/06 02:14:05;;;;;;;2.90;2.70;;;15.30;54.50;16.20;100358.00;;;;4949078;29;20212;-43
2021/12/06 02:16:53;;;;;;;3.30;3.00;;;15.30;54.50;16.20;100359.00;;;;4949267;28;20169;-43
2021/12/06 02:19:19;;;;;;;3.20;2.90;;;15.30;54.60;16.20;100362.00;;;;4949035;29;20594;-43
2021/12/06 02:21:45;;;;;;;2.93;2.70;;;15.30;54.50;16.20;100363.00;;;;4948831;28;20201;-43
2021/12/06 02:24:11;;;;;;;3.10;2.90;;;15.30;54.40;16.20;100372.00;;;;4948732;28;20216;-43
2021/12/06 02:26:39;;;;;;;2.90;2.70;;;15.30;54.50;16.20;100367.00;;;;4949347;29;20783;-43
2021/12/06 02:29:05;;;;;;;3.23;2.93;;;15.30;54.60;16.20;100374.00;;;;4948915;28;20438;-43
2021/12/06 02:31:31;;;;;;;3.20;2.80;;;15.30;54.60;16.10;100381.00;;;;4948542;28;20177;-42
2021/12/06 02:33:57;;;;;;;3.13;2.83;;;15.20;54.50;16.10;100381.00;;;;4949016;28;20254;-42
2021/12/06 02:36:23;;;;;;;2.83;2.63;;;15.20;54.40;16.10;100376.00;;;;4948642;28;20233;-43
2021/12/06 02:38:48;;;;;;;3.20;2.90;;;15.20;54.50;16.10;100380.00;;;;4948754;28;20232;-43
2021/12/06 02:41:14;;;;;;;3.30;3.00;;;15.20;54.40;16.10;100380.00;;;;4951442;28;20229;-42
2021/12/06 02:43:40;;;;;;;3.07;2.77;;;15.20;54.30;16.10;100389.00;;;;4952392;28;20213;-43
2021/12/06 02:46:06;;;;;;;3.20;2.90;;;15.20;54.40;16.10;100403.00;;;;4952414;29;20185;-44
2021/12/06 02:48:32;;;;;;;2.97;2.77;;;15.20;54.50;16.10;100398.00;;;;4952384;28;20217;-43
2021/12/06 02:50:59;;;;;;;3.10;2.80;;;15.20;54.40;16.00;100404.00;;;;4952066;28;20691;-43
2021/12/06 02:53:30;;;;;;;3.27;3.00;;;15.20;54.40;16.10;100399.00;;;;4952096;28;20197;-43
2021/12/06 02:55:58;;;;;;;3.10;2.90;;;15.10;54.40;16.00;100394.00;;;;4952957;28;20173;-43
2021/12/06 03:01:11;;;;;;;3.00;2.80;;;15.10;54.40;16.00;100414.00;;;;4951841;28;20813;-44
2021/12/06 03:03:37;;;;;;;3.10;2.80;;;15.10;54.40;16.00;100416.00;;;;4952323;28;20209;-41
2021/12/06 03:06:03;;;;;;;2.73;2.53;;;15.10;54.30;16.00;100406.00;;;;4952803;28;20170;-42
2021/12/06 03:08:46;;;;;;;2.83;2.53;;;15.10;54.40;16.00;100418.00;;;;4952216;28;20202;-42
2021/12/06 03:11:19;;;;;;;3.20;2.90;;;15.10;54.30;15.90;100411.00;;;;4952177;28;20189;-42
2021/12/06 03:13:45;;;;;;;2.97;2.70;;;15.10;54.50;15.90;100419.00;;;;4951919;28;20268;-41
2021/12/06 03:16:11;;;;;;;3.00;2.80;;;15.00;54.40;15.90;100424.00;;;;4951840;28;20262;-42
2021/12/06 03:18:37;;;;;;;2.60;2.40;;;15.00;54.40;15.90;100431.00;;;;4951911;29;20705;-43
2021/12/06 03:21:03;;;;;;;2.80;2.60;;;15.00;54.40;15.90;100432.00;;;;4951981;29;20177;-41
2021/12/06 03:23:29;;;;;;;3.00;2.80;;;15.00;54.40;15.90;100429.00;;;;4951677;28;20194;-41
2021/12/06 03:25:55;;;;;;;3.10;2.57;;;15.00;54.40;15.90;100436.00;;;;4951827;28;20179;-42
2021/12/06 03:28:21;;;;;;;2.90;2.70;;;14.90;54.30;15.80;100428.00;;;;4951633;29;20197;-41
2021/12/06 03:30:47;;;;;;;2.80;2.60;;;14.90;54.40;15.90;100430.00;;;;4966634;28;20572;-42
2021/12/06 03:33:12;;;;;;;2.50;2.30;;;14.90;54.40;15.90;100426.00;;;;4951441;28;20320;-42
2021/12/06 03:35:38;;;;;;;2.70;2.50;;;14.90;54.30;15.60;100427.00;;;;4951581;28;20178;-42
2021/12/06 03:38:04;;;;;;;2.70;2.50;;;14.90;54.30;15.80;100427.00;;;;4951079;29;20178;-42
2021/12/06 03:40:29;;;;;;;3.03;2.83;;;14.90;54.20;15.80;100427.00;;;;4951563;28;20680;-41
2021/12/06 03:42:55;;;;;;;2.60;2.40;;;14.90;54.20;15.80;100427.00;;;;4951320;28;20328;-42
2021/12/06 03:45:21;;;;;;;2.90;2.70;;;14.80;54.20;15.80;100440.00;;;;4951265;29;20193;-42
2021/12/06 03:47:46;;;;;;;2.80;2.57;;;14.80;54.10;15.80;100428.00;;;;4951206;29;20265;-41
2021/12/06 03:50:12;;;;;;;2.90;2.70;;;14.80;54.20;15.80;100432.00;;;;4951502;29;20170;-42
2021/12/06 03:52:38;;;;;;;2.73;2.53;;;14.80;54.20;15.80;100428.00;;;;4950754;28;20201;-42
2021/12/06 03:55:05;;;;;;;2.80;2.50;;;14.80;54.20;15.80;100442.00;;;;4966320;28;20257;-41
2021/12/06 03:57:31;;;;;;;2.83;2.53;;;14.80;54.30;15.80;100440.00;;;;4951103;28;20358;-42
2021/12/06 03:59:57;;;;;;;2.80;2.60;;;14.80;54.20;15.80;100447.00;;;;4951288;29;20618;-41
2021/12/06 04:02:26;;;;;;;2.93;2.40;;;14.70;54.10;15.80;100448.00;;;;4950634;28;20185;-42
2021/12/06 04:04:52;;;;;;;4.50;2.60;;;14.80;54.20;15.80;100451.00;;;;4951084;28;20642;-43
2021/12/06 04:07:18;;;;;;;2.60;2.40;;;14.70;54.20;15.80;100452.00;;;;4950940;29;20748;-42
2021/12/06 04:09:44;;;;;;;5.03;2.47;;;14.70;54.50;15.80;100447.00;;;;4951104;28;20292;-42
2021/12/06 04:12:10;;;;;;;2.70;2.50;;;14.70;54.40;15.70;100449.00;;;;4951219;29;20193;-42
2021/12/06 04:14:37;;;;;;;2.70;2.50;;;14.70;54.30;15.70;100448.00;;;;4950640;28;20184;-42
2021/12/06 04:17:03;;;;;;;5.43;2.70;;;14.70;54.40;15.70;100433.00;;;;4950967;28;20177;-42
2021/12/06 04:19:29;;;;;;;5.63;2.50;;;14.70;54.40;15.70;100443.00;;;;4965711;28;20181;-41
2021/12/06 04:21:55;;;;;;;2.90;2.60;;;14.70;54.90;15.70;100441.00;;;;4950011;29;20584;-42
2021/12/06 04:24:21;;;;;;;16.93;3.00;;;14.70;54.30;15.70;100442.00;;;;4950763;28;20177;-41
2021/12/06 04:26:47;;;;;;;12.07;2.70;;;14.70;54.70;15.70;100440.00;;;;4950530;28;20787;-42
2021/12/06 04:29:13;;;;;;;6.33;2.53;;;14.70;54.50;15.70;100453.00;;;;4950439;28;20194;-43
2021/12/06 04:31:46;;;;;;;5.97;2.60;;;14.70;54.50;15.70;100462.00;;;;4950128;28;20224;-42
2021/12/06 04:34:12;;;;;;;9.03;2.73;;;14.70;54.90;15.60;100465.00;;;;4950209;29;20182;-42
2021/12/06 04:36:39;;;;;;;7.10;2.47;;;14.70;54.90;15.60;100464.00;;;;4950324;28;20711;-42
2021/12/06 04:39:07;;;;;;;5.03;2.80;;;14.60;54.90;15.60;100479.00;;;;4950629;28;20201;-43
2021/12/06 04:41:33;;;;;;;4.97;2.60;;;14.60;54.70;15.60;100478.00;;;;4949589;28;20186;-42
2021/12/06 04:43:58;;;;;;;6.53;2.77;;;14.60;54.60;15.60;100477.00;;;;4949780;29;20232;-43
2021/12/06 04:46:24;;;;;;;2.97;2.40;;;14.50;54.30;15.50;100483.00;;;;4948856;29;20552;-43
2021/12/06 04:48:50;;;;;;;3.37;2.57;;;14.50;54.30;15.50;100484.00;;;;4949960;29;20549;-43
2021/12/06 04:51:16;;;;;;;2.70;2.50;;;14.50;54.40;15.50;100480.00;;;;4949856;28;20173;-43
2021/12/06 04:53:42;;;;;;;3.80;2.50;;;14.50;54.30;15.50;100482.00;;;;4949851;29;20190;-42
2021/12/06 04:56:23;;;;;;;3.00;2.47;;;14.50;54.30;15.50;100490.00;;;;4950206;28;20185;-43
2021/12/06 04:59:14;;;;;;;3.63;2.90;;;14.50;54.40;15.40;100500.00;;;;4949831;29;20158;-42
2021/12/06 05:01:40;;;;;;;2.60;2.40;;;14.40;54.20;15.40;100509.00;;;;4948832;28;20273;-43
2021/12/06 05:04:10;;;;;;;3.07;2.50;;;14.40;54.20;15.40;100524.00;;;;4949401;28;20252;-43
2021/12/06 05:06:37;;;;;;;2.70;2.40;;;14.40;54.10;15.40;100523.00;;;;4949725;28;20220;-42
2021/12/06 05:09:26;;;;;;;2.63;2.33;;;14.40;54.20;15.40;100525.00;;;;4949491;28;20207;-42
2021/12/06 05:11:52;;;;;;;2.50;2.30;;;14.40;54.20;15.30;100525.00;;;;4948946;28;20196;-42
2021/12/06 05:14:18;;;;;;;2.60;2.40;;;14.40;54.00;15.30;100528.00;;;;4958765;28;20184;-42
2021/12/06 05:16:44;;;;;;;5.33;2.57;;;14.30;53.90;15.30;100511.00;;;;4968737;28;20249;-42
2021/12/06 05:19:10;;;;;;;3.13;2.47;;;14.30;53.90;15.30;100538.00;;;;4968525;28;20185;-43
2021/12/06 05:21:37;;;;;;;2.87;2.43;;;14.30;53.90;15.30;100539.00;;;;4966577;28;20261;-42
2021/12/06 05:24:03;;;;;;;3.90;2.60;;;14.30;53.90;15.30;100540.00;;;;4968497;28;20670;-43
2021/12/06 05:26:29;;;;;;;3.97;2.47;;;14.20;53.70;15.30;100540.00;;;;4968495;28;20173;-43
2021/12/06 05:28:59;;;;;;;2.80;2.30;;;14.20;54.40;15.30;100549.00;;;;4967965;28;20204;-41
2021/12/06 05:31:26;;;;;;;2.60;2.40;;;14.30;54.10;15.20;100548.00;;;;4967298;28;20169;-42
2021/12/06 05:33:55;;;;;;;4.03;2.47;;;14.20;53.90;15.20;100553.00;;;;4968659;28;20161;-43
2021/12/06 05:36:21;;;;;;;3.77;2.30;;;14.30;54.20;15.20;100552.00;;;;4968230;28;20545;-43
2021/12/06 05:38:49;;;;;;;2.50;2.30;;;14.20;54.10;15.20;100476.00;;;;4968325;28;20177;-43
2021/12/06 05:41:14;;;;;;;2.60;2.23;;;14.20;54.10;15.20;100562.00;;;;4966911;28;20208;-42
2021/12/06 05:43:40;;;;;;;3.13;2.50;;;14.30;54.20;15.20;100570.00;;;;4967522;28;20255;-42
2021/12/06 05:46:06;;;;;;;3.40;2.10;;;14.20;54.10;15.20;100555.00;;;;4968358;28;20523;-41
2021/12/06 05:48:32;;;;;;;2.37;2.17;;;14.20;54.10;15.20;100548.00;;;;4967930;28;20239;-42
2021/12/06 05:50:57;;;;;;;3.20;2.30;;;14.20;54.10;15.20;100560.00;;;;4967646;28;20169;-43
2021/12/06 05:53:23;;;;;;;3.90;2.30;;;14.20;54.10;15.20;100571.00;;;;4967716;28;20208;-42
2021/12/06 05:55:49;;;;;;;3.10;2.20;;;14.20;54.10;15.20;100576.00;;;;4967646;28;20260;-42
2021/12/06 05:58:17;;;;;;;2.47;2.03;;;14.20;54.10;15.20;100580.00;;;;4966714;28;20267;-42
2021/12/06 06:00:43;;;;;;;2.50;2.20;;;14.20;54.10;15.20;100578.00;;;;4967511;28;20332;-43
2021/12/06 06:03:08;;;;;;;2.30;2.10;;;14.10;54.60;15.20;100573.00;;;;4967863;28;20197;-42
2021/12/06 06:05:35;;;;;;;2.30;2.10;;;14.10;54.00;15.20;100569.00;;;;4966496;28;20314;-44
2021/12/06 06:08:01;;;;;;;2.40;2.20;;;14.20;54.10;15.10;100574.00;;;;4964949;28;20973;-43
2021/12/06 06:10:27;;;;;;;2.33;2.13;;;14.10;54.70;15.10;100567.00;;;;4964541;28;20314;-43
2021/12/06 06:12:52;;;;;;;2.43;2.23;;;14.10;54.10;15.10;100570.00;;;;4966152;28;20189;-43
2021/12/06 06:15:18;;;;;;;2.20;2.00;;;14.10;54.00;15.10;100579.00;;;;4968075;28;20267;-44
2021/12/06 06:17:44;;;;;;;2.50;2.30;;;14.10;54.00;15.10;100576.00;;;;4972108;28;20236;-44
2021/12/06 06:20:21;;;;;;;2.30;2.10;;;14.10;54.00;15.10;100575.00;;;;4971141;28;20188;-43
2021/12/06 06:22:47;;;;;;;2.20;2.00;;;14.10;54.00;15.10;100582.00;;;;4971922;28;20188;-44
2021/12/06 06:25:14;;;;;;;3.30;2.07;;;14.10;54.00;15.00;100594.00;;;;4971846;28;20204;-42
2021/12/06 06:27:39;;;;;;;2.33;2.10;;;14.00;53.90;15.00;100595.00;;;;4971804;28;20259;-43
2021/12/06 06:30:06;;;;;;;2.67;2.20;;;14.00;54.00;15.00;100602.00;;;;4971708;28;20173;-43
2021/12/06 06:32:32;;;;;;;2.40;2.17;;;14.00;54.20;15.00;100607.00;;;;4970769;28;20197;-43
2021/12/06 06:34:58;;;;;;;2.20;2.00;;;14.00;54.20;15.00;100520.00;;;;4971813;28;20712;-44
2021/12/06 06:37:23;;;;;;;2.20;2.00;;;13.90;54.20;15.00;100605.00;;;;4971967;28;20169;-42
2021/12/06 06:39:49;;;;;;;2.30;2.10;;;14.00;54.20;15.00;100608.00;;;;4971506;28;20298;-43
2021/12/06 06:42:15;;;;;;;2.17;1.97;;;14.00;54.20;15.00;100608.00;;;;4971230;28;20200;-44
2021/12/06 06:44:41;;;;;;;2.40;2.20;;;13.90;54.10;15.00;100613.00;;;;4971448;28;20573;-44
2021/12/06 06:47:07;;;;;;;2.40;2.20;;;13.90;54.10;15.00;100616.00;;;;4971319;28;20275;-43
2021/12/06 06:49:32;;;;;;;3.03;2.03;;;13.90;54.20;15.00;100621.00;;;;4971052;28;20205;-44
2021/12/06 06:52:01;;;;;;;2.30;2.10;;;13.90;54.10;14.90;100619.00;;;;4970458;28;20371;-43
2021/12/06 06:54:27;;;;;;;2.30;2.10;;;13.90;54.10;14.90;100624.00;;;;4971213;28;20608;-43
2021/12/06 06:56:53;;;;;;;2.30;2.07;;;13.90;54.10;14.90;100631.00;;;;4970772;28;20165;-41
2021/12/06 06:59:18;;;;;;;1.90;1.80;;;13.90;54.30;14.90;100618.00;;;;4970908;28;20548;-42
2021/12/06 07:01:45;;;;;;;2.23;2.03;;;13.90;54.20;14.90;100611.00;;;;4969788;28;20642;-42
2021/12/06 07:04:12;;;;;;;2.00;1.90;;;13.90;54.20;14.90;100609.00;;;;4971213;28;20189;-42
2021/12/06 07:06:38;;;;;;;2.20;2.00;;;13.90;54.20;14.90;100612.00;;;;4971264;28;20161;-42
2021/12/06 07:09:04;;;;;;;2.00;1.90;;;13.80;54.20;14.90;100612.00;;;;4970640;28;20691;-41
2021/12/06 07:11:30;;;;;;;2.10;2.00;;;13.80;54.10;14.80;100600.00;;;;4970052;28;20288;-42
2021/12/06 07:13:56;;;;;;;2.00;1.90;;;13.80;54.40;14.80;100600.00;;;;4970760;28;20179;-45
2021/12/06 07:16:22;;;;;;;2.20;2.00;;;13.80;54.20;14.80;100603.00;;;;4970950;28;20260;-44
2021/12/06 07:18:47;;;;;;;2.27;2.07;;;13.80;54.20;14.80;100609.00;;;;4971174;28;20777;-42
2021/12/06 07:21:13;;;;;;;2.00;1.90;;;13.80;54.10;14.80;100588.00;;;;4969843;28;20279;-42
2021/12/06 07:23:41;;;;;;;2.37;2.17;;;13.80;54.10;14.80;100594.00;;;;4970580;28;20204;-42
2021/12/06 07:26:08;;;;;;;2.20;2.00;;;13.80;54.10;14.80;100586.00;;;;4970513;28;20204;-44
2021/12/06 07:28:34;;;;;;;2.20;2.00;;;13.70;54.20;14.80;100596.00;;;;4970871;28;20212;-44
2021/12/06 07:31:01;;;;;;;2.23;2.10;;;13.80;54.20;14.80;100600.00;;;;4970126;28;20168;-42
2021/12/06 07:33:27;;;;;;;2.50;2.30;;;13.70;54.20;14.70;100603.00;;;;4970134;28;20220;-43
2021/12/06 07:35:53;;;;;;;2.10;2.00;;;13.70;54.10;14.70;100612.00;;;;4971035;28;20177;-44
2021/12/06 07:38:18;;;;;;;1.90;1.80;;;13.70;54.10;14.70;100624.00;;;;4970792;28;20494;-41
2021/12/06 07:40:45;;;;;;;2.27;2.07;;;13.70;54.10;14.70;100627.00;;;;4970498;28;20173;-43
2021/12/06 07:43:11;;;;;;;2.30;2.13;;;13.70;54.20;14.70;100624.00;;;;4969257;28;20197;-42
2021/12/06 07:45:36;;;;;;;2.20;2.00;;;13.70;54.20;14.70;100626.00;;;;4970278;28;20180;-43
2021/12/06 07:48:02;;;;;;;2.23;2.00;;;13.70;54.20;14.60;100625.00;;;;4970142;28;20205;-43
2021/12/06 07:50:28;;;;;;;2.10;2.00;;;13.70;54.20;14.60;100624.00;;;;4970299;28;20173;-43
2021/12/06 07:52:54;;;;;;;2.30;2.10;;;13.70;54.30;14.60;100623.00;;;;4969806;28;20189;-43
2021/12/06 07:55:22;;;;;;;2.20;2.00;;;13.70;54.20;14.60;100628.00;;;;4970082;28;20192;-43
2021/12/06 07:57:47;;;;;;;2.40;2.20;;;13.60;54.20;14.60;100628.00;;;;4970145;28;20534;-43
2021/12/06 08:00:23;;;;;;;2.27;2.07;;;13.60;54.20;14.60;100634.00;;;;4968562;28;20224;-43
2021/12/06 08:02:49;;;;;;;2.23;2.03;;;13.60;54.20;14.60;100624.00;;;;4969666;28;20633;-43
2021/12/06 08:05:30;;;;;;;2.27;2.10;;;13.60;54.20;14.60;100625.00;;;;4970111;28;20209;-42
2021/12/06 08:08:00;;;;;;;2.00;1.90;;;13.60;54.20;14.50;100622.00;;;;4969742;28;20256;-43
2021/12/06 08:10:26;;;;;;;2.30;2.10;;;13.60;54.30;14.50;100633.00;;;;4969456;28;20243;-43
2021/12/06 08:12:51;;;;;;;2.50;2.30;;;13.50;54.20;14.50;100628.00;;;;4968963;28;20185;-42
2021/12/06 08:15:17;;;;;;;2.30;2.10;;;13.50;54.20;14.50;100630.00;;;;4969987;28;20173;-43
2021/12/06 08:17:43;;;;;;;2.50;2.30;;;13.50;54.20;14.50;100627.00;;;;4968784;28;20216;-43
2021/12/06 08:20:10;;;;;;;2.20;2.10;;;13.60;54.30;14.50;100629.00;;;;4960866;28;20592;-43
2021/12/06 08:22:36;;;;;;;2.27;2.07;;;13.50;54.20;14.50;100631.00;;;;4949348;28;20277;-43
2021/12/06 08:25:07;;;;;;;2.77;2.10;;;13.50;54.20;14.50;100619.00;;;;4950402;28;20236;-42
2021/12/06 08:27:33;;;;;;;2.30;2.10;;;13.50;54.20;14.50;100625.00;;;;4948680;28;20170;-43
2021/12/06 08:29:59;;;;;;;2.20;2.10;;;13.50;54.20;14.50;100623.00;;;;4949978;29;20742;-43
2021/12/06 08:32:25;;;;;;;2.40;2.20;;;13.50;54.20;14.40;100623.00;;;;4948859;28;20308;-43
2021/12/06 08:34:50;;;;;;;3.83;2.20;;;13.50;54.20;14.40;100631.00;;;;4950134;28;20394;-41
2021/12/06 08:37:16;;;;;;;3.60;2.50;;;13.50;54.40;14.50;100633.00;;;;4948291;28;20516;-41
2021/12/06 08:39:42;;;;;;;2.60;2.40;;;13.50;54.20;14.40;100637.00;;;;4957730;28;20212;-41
2021/12/06 08:42:08;;;;;;;2.90;2.30;;;13.50;54.80;14.40;100643.00;;;;4963175;28;20208;-41
2021/12/06 08:44:34;;;;;;;2.33;2.13;;;13.50;54.80;14.50;100644.00;;;;4974882;28;20165;-41
2021/12/06 08:47:00;;;;;;;2.40;2.20;;;13.60;54.70;14.50;100636.00;;;;4968693;28;20699;-41
2021/12/06 08:49:26;;;;;;;2.10;2.00;;;13.90;54.90;14.60;100634.00;;;;4967247;28;20221;-40
2021/12/06 08:51:55;;;;;;;2.73;2.23;;;14.10;54.70;14.70;100660.00;;;;4966856;28;20652;-41
2021/12/06 08:54:22;;;;;;;2.50;2.30;;;14.40;54.20;14.80;100649.00;;;;4961410;28;20185;-41
2021/12/06 08:56:48;;;;;;;7.93;2.57;;;14.60;54.40;15.00;100647.00;;;;4969835;28;20170;-41
2021/12/06 08:59:14;;;;;;;7.70;2.60;;;14.90;54.10;15.10;100650.00;;;;4969871;28;20587;-41
2021/12/06 09:01:40;;;;;;;2.50;2.30;;;15.30;53.90;15.40;100655.00;;;;4968605;28;20157;-41
2021/12/06 09:04:09;;;;;;;2.73;2.30;;;15.60;53.60;15.50;100662.00;;;;4969276;28;20173;-41
2021/12/06 09:06:36;;;;;;;3.77;2.30;;;15.90;53.30;15.70;100661.00;;;;4970072;28;20578;-41
2021/12/06 09:09:05;;;;;;;5.13;2.27;;;16.30;53.00;16.00;100659.00;;;;4969366;28;20205;-41
2021/12/06 09:11:31;;;;;;;4.13;2.30;;;16.40;52.80;16.10;100662.00;;;;4969028;28;20555;-40
2021/12/06 09:13:57;;;;;;;4.50;2.30;;;16.60;52.70;16.30;100657.00;;;;4969063;28;20172;-41
2021/12/06 09:16:22;;;;;;;3.33;2.40;;;16.70;52.50;16.50;100652.00;;;;4969828;28;20639;-41
2021/12/06 09:18:48;;;;;;;4.87;2.30;;;16.80;52.60;16.70;100654.00;;;;4969001;28;20579;-41
2021/12/06 09:21:17;;;;;;;3.73;2.40;;;17.00;52.50;16.80;100660.00;;;;4968706;28;20337;-41
2021/12/06 09:23:43;;;;;;;4.63;2.53;;;17.00;52.50;16.90;100646.00;;;;4968683;28;20597;-41
2021/12/06 09:26:09;;;;;;;3.10;2.40;;;17.20;52.70;17.00;100646.00;;;;4969216;28;20268;-41
2021/12/06 09:28:35;;;;;;;2.70;2.50;;;17.30;52.40;17.10;100653.00;;;;4950631;28;20256;-41
2021/12/06 09:31:03;;;;;;;2.50;2.30;;;17.40;52.40;17.20;100645.00;;;;4949897;29;20170;-41
2021/12/06 09:33:30;;;;;;;3.00;2.33;;;17.50;52.50;17.30;100651.00;;;;4960916;28;20283;-41
2021/12/06 09:35:58;;;;;;;2.70;2.50;;;17.60;52.60;17.40;100658.00;;;;4969510;28;20185;-41
2021/12/06 09:38:28;;;;;;;5.33;2.50;;;17.60;52.60;17.50;100645.00;;;;4968899;28;20277;-41
2021/12/06 09:40:55;;;;;;;2.77;2.30;;;17.60;52.60;17.50;100652.00;;;;4969128;28;20180;-41
2021/12/06 09:43:21;;;;;;;2.70;2.50;;;17.60;52.60;17.60;100654.00;;;;4968429;28;20268;-41
2021/12/06 09:45:46;;;;;;;2.50;2.30;;;17.60;52.80;17.70;100646.00;;;;4968203;28;20750;-41
2021/12/06 09:48:15;;;;;;;2.80;2.50;;;17.60;52.90;17.70;100640.00;;;;4968797;28;20255;-41
2021/12/06 09:51:00;;;;;;;2.70;2.50;;;17.70;52.90;17.70;100644.00;;;;4969254;28;20196;-41
2021/12/06 09:53:28;;;;;;;3.37;2.50;;;17.70;53.00;17.70;100648.00;;;;4969087;28;20627;-41
2021/12/06 09:55:57;;;;;;;3.40;2.80;;;17.60;53.10;17.80;100644.00;;;;4969403;28;20195;-41
2021/12/06 09:58:23;;;;;;;3.23;2.60;;;17.60;53.30;17.80;100648.00;;;;4969365;28;20181;-41
2021/12/06 10:00:53;;;;;;;5.87;2.40;;;17.60;53.50;17.80;100650.00;;;;4968556;28;20181;-41
2021/12/06 10:03:24;;;;;;;5.40;3.00;;;17.60;53.90;17.80;100652.00;;;;4967282;28;20213;-41
2021/12/06 10:05:50;;;;;;;7.97;2.67;;;17.50;54.00;17.90;100649.00;;;;4969375;28;20228;-41
2021/12/06 10:08:16;;;;;;;5.93;2.80;;;17.50;54.20;17.90;100658.00;;;;4969044;28;20220;-40
2021/12/06 10:10:42;;;;;;;5.53;3.00;;;17.50;54.40;17.90;100657.00;;;;4968893;28;20188;-40
2021/12/06 10:13:08;;;;;;;4.27;2.90;;;17.50;54.40;17.90;100664.00;;;;4967871;28;20185;-40
2021/12/06 10:15:34;;;;;;;8.30;2.87;;;17.50;54.40;17.90;100661.00;;;;4968889;28;20235;-41
2021/12/06 10:18:00;;;;;;;5.23;2.90;;;17.50;54.40;17.90;100658.00;;;;4969121;28;20173;-40
2021/12/06 10:20:27;;;;;;;5.80;2.87;;;17.40;54.60;17.90;100661.00;;;;4967550;28;20173;-40
2021/12/06 10:22:54;;;;;;;4.90;3.07;;;17.40;54.80;17.90;100656.00;;;;4967180;28;20196;-41
2021/12/06 10:25:21;;;;;;;4.47;2.80;;;17.40;54.90;17.90;100654.00;;;;4969223;28;20145;-40
2021/12/06 10:27:54;;;;;;;3.70;3.07;;;17.40;54.60;17.90;100651.00;;;;4968732;28;20201;-41
2021/12/06 10:30:21;;;;;;;4.63;2.83;;;17.40;54.80;17.90;100649.00;;;;4969223;28;20659;-40
2021/12/06 10:32:46;;;;;;;6.43;3.00;;;17.40;54.80;17.90;100654.00;;;;4968371;28;20203;-41
2021/12/06 10:35:14;;;;;;;3.20;2.90;;;17.50;54.80;17.90;100642.00;;;;4969181;28;20157;-41
2021/12/06 10:37:47;;;;;;;3.10;2.80;;;17.40;54.80;17.90;100636.00;;;;4969606;28;20239;-40
2021/12/06 10:40:21;;;;;;;5.57;3.00;;;17.60;54.90;18.00;100641.00;;;;4968504;28;20188;-41
2021/12/06 10:42:49;;;;;;;4.27;2.80;;;17.60;54.80;18.00;100643.00;;;;4968165;28;20235;-40
2021/12/06 10:45:30;;;;;;;4.03;3.20;;;17.70;54.80;18.10;100640.00;;;;4968867;28;20536;-41
2021/12/06 10:48:15;;;;;;;4.73;2.83;;;17.70;54.80;18.10;100643.00;;;;4968663;28;20188;-40
2021/12/06 10:50:48;;;;;;;6.10;3.07;;;17.90;54.60;18.20;100633.00;;;;4967060;28;20177;-41
2021/12/06 10:53:15;;;;;;;3.37;3.00;;;17.90;54.50;18.20;100632.00;;;;4967931;28;20208;-40
2021/12/06 10:55:42;;;;;;;4.57;3.23;;;18.00;54.40;18.20;100629.00;;;;4969324;28;20227;-41
2021/12/06 10:58:15;;;;;;;5.30;3.10;;;18.00;54.30;18.30;100628.00;;;;4968072;28;20165;-40